Flight Track Log - Related Links

Times and Time Zones

All times are in EDT time to prevent confusion due to time zone crossing. See the AVN10 flight status page for this flight to view local times or setup timezone preferences in your user account.

Time Position Orientation Groundspeed Altitude Reporting Facility
EDT Latitude Longitude Course Direction KTS MPH feet Rate Location/Type
Wed 03:59:00 PM -17.9506 168.0495 226° Southwest  Level FlightAware Approximate
Wed 04:00:00 PM -18.0343 167.9592 226° Southwest  Level FlightAware Approximate
Wed 04:01:00 PM -18.1179 167.8688 226° Southwest  Level FlightAware Approximate
Wed 04:02:00 PM -18.2015 167.7784 226° Southwest  Level FlightAware Approximate
Wed 04:03:00 PM -18.2850 167.6878 226° Southwest  Level FlightAware Approximate
Wed 04:04:00 PM -18.3685 167.5972 226° Southwest  Level FlightAware Approximate
Wed 04:05:00 PM -18.4520 167.5065 226° Southwest  Level FlightAware Approximate
Wed 04:06:00 PM -18.5354 167.4157 226° Southwest  Level FlightAware Approximate
Wed 04:07:00 PM -18.6188 167.3248 226° Southwest  Level FlightAware Approximate
Wed 04:08:00 PM -18.7021 167.2338 226° Southwest  Level FlightAware Approximate
Wed 04:09:00 PM -18.7854 167.1428 226° Southwest  Level FlightAware Approximate
Wed 04:10:00 PM -18.8686 167.0516 226° Southwest  Level FlightAware Approximate
Wed 04:11:00 PM -18.9518 166.9604 226° Southwest  Level FlightAware Approximate
Wed 04:12:00 PM -19.0350 166.8690 226° Southwest  Level FlightAware Approximate
Wed 04:13:00 PM -19.1181 166.7776 226° Southwest  Level FlightAware Approximate
Wed 04:14:00 PM -19.2011 166.6861 226° Southwest  Level FlightAware Approximate
Wed 04:15:00 PM -19.2842 166.5945 226° Southwest  Level FlightAware Approximate
Wed 04:16:00 PM -19.3671 166.5027 226° Southwest  Level FlightAware Approximate
Wed 04:17:00 PM -19.4501 166.4109 226° Southwest  Level FlightAware Approximate
Wed 04:18:00 PM -19.5329 166.3191 226° Southwest  Level FlightAware Approximate
Wed 04:19:00 PM -19.6158 166.2271 226° Southwest  Level FlightAware Approximate
Wed 04:20:00 PM -19.6985 166.1350 226° Southwest  Level FlightAware Approximate
Wed 04:21:00 PM -19.7813 166.0428 226° Southwest  Level FlightAware Approximate
Wed 04:22:00 PM -19.8640 165.9505 226° Southwest  Level FlightAware Approximate
Wed 04:23:00 PM -19.9466 165.8582 226° Southwest  Level FlightAware Approximate
Wed 04:24:00 PM -20.0292 165.7657 226° Southwest  Level FlightAware Approximate
Wed 04:25:00 PM -20.1117 165.6731 226° Southwest  Level FlightAware Approximate
Wed 04:26:00 PM -20.1943 165.5805 227° Southwest  Level FlightAware Approximate
Wed 04:27:00 PM -20.2767 165.4877 227° Southwest  Level FlightAware Approximate
Wed 04:28:00 PM -20.3591 165.3949 227° Southwest  Level FlightAware Approximate
Wed 04:29:00 PM -20.4415 165.3019 227° Southwest  Level FlightAware Approximate
Wed 04:30:00 PM -20.5238 165.2088 227° Southwest  Level FlightAware Approximate
Wed 04:31:00 PM -20.6060 165.1157 227° Southwest  Level FlightAware Approximate
Wed 04:32:00 PM -20.6882 165.0224 227° Southwest  Level FlightAware Approximate
Wed 04:33:00 PM -20.7703 164.9291 227° Southwest  Level FlightAware Approximate
Wed 04:34:00 PM -20.8524 164.8356 227° Southwest  Level FlightAware Approximate
Wed 04:35:00 PM -20.9345 164.7420 227° Southwest  Level FlightAware Approximate
Wed 04:36:00 PM -21.0165 164.6484 227° Southwest  Level FlightAware Approximate
Wed 04:37:00 PM -21.0984 164.5546 227° Southwest  Level FlightAware Approximate
Wed 04:38:00 PM -21.1803 164.4607 227° Southwest  Level FlightAware Approximate
Wed 04:39:00 PM -21.2622 164.3667 227° Southwest  Level FlightAware Approximate
Wed 04:40:00 PM -21.3440 164.2727 227° Southwest  Level FlightAware Approximate
Wed 04:41:00 PM -21.4257 164.1785 227° Southwest  Level FlightAware Approximate
Wed 04:42:00 PM -21.5074 164.0842 227° Southwest  Level FlightAware Approximate
Wed 04:43:00 PM -21.5891 163.9898 227° Southwest  Level FlightAware Approximate
Wed 04:44:00 PM -21.6706 163.8953 227° Southwest  Level FlightAware Approximate
Wed 04:45:00 PM -21.7522 163.8007 227° Southwest  Level FlightAware Approximate
Wed 04:46:00 PM -21.8336 163.7060 227° Southwest  Level FlightAware Approximate
Wed 04:47:00 PM -21.9151 163.6111 227° Southwest  Level FlightAware Approximate
Wed 04:48:00 PM -21.9964 163.5162 227° Southwest  Level FlightAware Approximate
Wed 04:49:00 PM -22.0777 163.4212 227° Southwest  Level FlightAware Approximate
Wed 04:50:00 PM -22.1590 163.3260 227° Southwest  Level FlightAware Approximate
Wed 04:50:09 PM -22.1628 163.3214 220° Southwest 38,000  Level Aus ATC (Calculated)
Wed 04:52:00 PM -22.2896 163.1726 227° Southwest  Level FlightAware Approximate
Wed 04:53:00 PM -22.3581 163.0920 227° Southwest  Level FlightAware Approximate
Wed 04:53:09 PM -22.3934 163.0504 220° Southwest 38,000  Level Aus ATC (Calculated)
Wed 04:55:00 PM -22.5199 162.9011 227° Southwest  Level FlightAware Approximate
Wed 04:55:01 PM -22.5325 162.8863 220° Southwest 38,000  Level Aus ATC (Calculated)
Wed 04:57:00 PM -22.6680 162.7259 228° Southwest  Level FlightAware Approximate
Wed 04:57:33 PM -22.7278 162.6549 219° Southwest 38,000  Level Aus ATC (Calculated)
Wed 04:59:00 PM -22.8263 162.5378 228° Southwest  Level FlightAware Approximate
Wed 05:00:00 PM -22.8941 162.4570 228° Southwest  Level FlightAware Approximate
Wed 05:01:00 PM -22.9620 162.3761 228° Southwest  Level FlightAware Approximate
Wed 05:02:00 PM -23.0297 162.2951 228° Southwest  Level FlightAware Approximate
Wed 05:03:00 PM -23.0975 162.2140 228° Southwest  Level FlightAware Approximate
Wed 05:04:00 PM -23.1652 162.1328 228° Southwest  Level FlightAware Approximate
Wed 05:05:00 PM -23.2328 162.0516 228° Southwest  Level FlightAware Approximate
Wed 05:06:00 PM -23.3004 161.9702 228° Southwest  Level FlightAware Approximate
Wed 05:07:00 PM -23.3680 161.8888 228° Southwest  Level FlightAware Approximate
Wed 05:08:00 PM -23.4356 161.8073 228° Southwest  Level FlightAware Approximate
Wed 05:09:00 PM -23.5030 161.7258 228° Southwest  Level FlightAware Approximate
Wed 05:10:00 PM -23.5705 161.6441 228° Southwest  Level FlightAware Approximate
Wed 05:11:00 PM -23.6379 161.5624 228° Southwest  Level FlightAware Approximate
Wed 05:12:00 PM -23.7052 161.4805 228° Southwest  Level FlightAware Approximate
Wed 05:13:00 PM -23.7726 161.3986 228° Southwest  Level FlightAware Approximate
Wed 05:14:00 PM -23.8398 161.3166 228° Southwest  Level FlightAware Approximate
Wed 05:15:00 PM -23.9071 161.2345 228° Southwest  Level FlightAware Approximate
Wed 05:16:00 PM -23.9743 161.1524 228° Southwest  Level FlightAware Approximate
Wed 05:17:00 PM -24.0414 161.0701 228° Southwest  Level FlightAware Approximate
Wed 05:17:43 PM -24.4237 160.5991 213° Southwest 38,000  Level Aus ATC (Calculated)
Wed 05:18:00 PM -24.1085 160.9878 228° Southwest  Level FlightAware Approximate
Wed 05:19:00 PM -24.5095 160.4928 228° Southwest  Level FlightAware Approximate
Wed 05:20:00 PM -24.5763 160.4098 228° Southwest  Level FlightAware Approximate
Wed 05:21:00 PM -24.6430 160.3268 229° Southwest  Level FlightAware Approximate
Wed 05:22:00 PM -24.5763 160.4098 49° Northeast  Level FlightAware Approximate
Wed 05:23:00 PM -24.6430 160.3268 229° Southwest  Level FlightAware Approximate
Wed 05:24:00 PM -24.5763 160.4098 49° Northeast  Level FlightAware Approximate
Wed 05:25:00 PM -24.6430 160.3268 229° Southwest  Level FlightAware Approximate
Wed 05:26:00 PM -24.6513 160.3471 212° Southwest  Level FlightAware Approximate
Wed 05:27:00 PM -24.7371 160.2891 212° Southwest  Level FlightAware Approximate
Wed 05:28:00 PM -24.8230 160.2310 212° Southwest  Level FlightAware Approximate
Wed 05:29:00 PM -24.9088 160.1728 212° Southwest  Level FlightAware Approximate
Wed 05:30:00 PM -24.9946 160.1145 212° Southwest  Level FlightAware Approximate
Wed 05:31:00 PM -25.0804 160.0561 212° Southwest  Level FlightAware Approximate
Wed 05:32:00 PM -25.1661 159.9977 212° Southwest  Level FlightAware Approximate
Wed 05:33:00 PM -25.2519 159.9392 212° Southwest  Level FlightAware Approximate
Wed 05:34:00 PM -25.3376 159.8806 212° Southwest  Level FlightAware Approximate
Wed 05:35:00 PM -25.4233 159.8219 212° Southwest  Level FlightAware Approximate
Wed 05:35:01 PM -26.2180 159.2727 212° Southwest 40,000  Level Aus ATC (Calculated)
Wed 05:36:20 PM -26.3160 159.2045 212° Southwest 40,000 -74 Level Aus ATC (Calculated)
Wed 05:38:00 PM -26.4589 159.1045 212° Southwest  Level FlightAware Approximate
Wed 05:39:00 PM -26.5447 159.0445 212° Southwest  Level FlightAware Approximate
Wed 05:40:00 PM -26.6304 158.9843 212° Southwest  Level FlightAware Approximate
Wed 05:41:00 PM -26.7161 158.9240 212° Southwest  Level FlightAware Approximate
Wed 05:42:00 PM -26.8017 158.8637 212° Southwest  Level FlightAware Approximate
Wed 05:43:00 PM -26.8874 158.8033 212° Southwest  Level FlightAware Approximate
Wed 05:44:00 PM -26.9730 158.7427 212° Southwest  Level FlightAware Approximate
Wed 05:45:00 PM -27.0586 158.6821 212° Southwest  Level FlightAware Approximate
Wed 05:46:00 PM -27.1441 158.6214 212° Southwest  Level FlightAware Approximate
Wed 05:47:00 PM -27.2297 158.5606 212° Southwest  Level FlightAware Approximate
Wed 05:48:00 PM -27.3152 158.4997 212° Southwest  Level FlightAware Approximate
Wed 05:49:00 PM -27.4007 158.4387 212° Southwest  Level FlightAware Approximate
Wed 05:50:00 PM -27.4861 158.3776 212° Southwest  Level FlightAware Approximate
Wed 05:51:00 PM -27.5716 158.3164 212° Southwest  Level FlightAware Approximate
Wed 05:52:00 PM -27.6570 158.2551 212° Southwest  Level FlightAware Approximate
Wed 05:53:00 PM -27.7423 158.1938 212° Southwest  Level FlightAware Approximate
Wed 05:54:00 PM -27.8277 158.1323 212° Southwest  Level FlightAware Approximate
Wed 05:55:00 PM -27.9130 158.0707 213° Southwest  Level FlightAware Approximate
Wed 05:56:00 PM -27.9983 158.0091 213° Southwest  Level FlightAware Approximate
Wed 05:57:00 PM -28.0836 157.9473 213° Southwest  Level FlightAware Approximate
Wed 05:58:00 PM -28.1688 157.8855 213° Southwest  Level FlightAware Approximate
Wed 05:59:00 PM -28.2540 157.8235 213° Southwest  Level FlightAware Approximate
Wed 05:59:48 PM -28.8009 157.4230 33° Northeast 40,000  Level Aus ATC (Calculated)
Wed 06:00:00 PM -28.3392 157.7614 213° Southwest  Level FlightAware Approximate
Wed 06:00:42 PM -28.8978 157.3515 33° Northeast 40,000  Level Aus ATC (Calculated)
Wed 06:01:00 PM -28.9029 157.3477 213° Southwest  Level FlightAware Approximate
Wed 06:02:00 PM -29.0083 157.2698 213° Southwest  Level FlightAware Approximate
Wed 06:02:03 PM -26.8350 158.8400 213° Southwest 346 398 38,000  Level FlightAware ADS-B
Wed 06:02:51 PM -26.8900 158.8000 213° Southwest 346 398 38,000  Level FlightAware ADS-B
Wed 06:03:00 PM -29.0932 157.2068 213° Southwest  Level FlightAware Approximate
Wed 06:03:27 PM -26.9490 158.7600 211° Southwest 344 396 38,000  Level FlightAware ADS-B
Wed 06:03:27 PM -29.1884 157.1361 33° Northeast 40,000  Climbing Aus ATC (Calculated)
Wed 06:04:05 PM -26.9960 158.7250 211° Southwest 344 396 38,000 -1,667 Descending FlightAware ADS-B
Wed 06:04:39 PM -27.0350 158.6970 213° Southwest 344 396 38,000  Level FlightAware ADS-B
Wed 06:04:42 PM -29.3336 157.0279 33° Northeast 40,000  Climbing Aus ATC (Calculated)
Wed 06:05:16 PM -27.0770 158.6670 212° Southwest 344 396 38,000 -1,463 Descending FlightAware ADS-B
Wed 06:06:04 PM -27.1310 158.6270 212° Southwest 344 396 38,000  Level FlightAware ADS-B
Wed 06:06:28 PM -27.1590 158.6070 212° Southwest 344 396 38,000  Level FlightAware ADS-B
Wed 06:07:04 PM -27.2000 158.5770 213° Southwest 344 396 38,000  Level FlightAware ADS-B
Wed 06:07:40 PM -27.2400 158.5470 214° Southwest 344 396 38,000  Level FlightAware ADS-B
Wed 06:08:16 PM -27.2810 158.5180 212° Southwest 344 396 38,000  Level FlightAware ADS-B
Wed 06:08:52 PM -27.3220 158.4880 213° Southwest 344 396 38,000  Level FlightAware ADS-B
Wed 06:09:26 PM -29.8168 156.6652 33° Northeast 40,000  Climbing Aus ATC (Calculated)
Wed 06:09:28 PM -27.3630 158.4580 213° Southwest 344 396 38,000 -3,158 Descending FlightAware ADS-B
Wed 06:10:04 PM -27.4040 158.4280 213° Southwest 344 396 38,000  Level FlightAware ADS-B
Wed 06:10:40 PM -27.4450 158.3980 213° Southwest 344 396 38,000  Level FlightAware ADS-B
Wed 06:11:21 PM -27.4910 158.3640 213° Southwest 344 396 38,000  Level FlightAware ADS-B
Wed 06:11:57 PM -27.5320 158.3340 213° Southwest 344 396 38,000  Level FlightAware ADS-B
Wed 06:12:33 PM -27.5730 158.3040 213° Southwest 344 396 38,000  Level FlightAware ADS-B
Wed 06:13:12 PM -27.6170 158.2720 213° Southwest 344 396 38,000  Level FlightAware ADS-B
Wed 06:14:00 PM -27.8135 158.1447 213° Southwest 342 394 38,000  Level Aus ATC (RADAR)
Wed 06:14:30 PM -27.8547 158.1152 212° Southwest 346 398 38,000  Level Aus ATC (RADAR)
Wed 06:16:05 PM -27.9859 158.0222 212° Southwest 349 402 38,000  Level Aus ATC (RADAR)
Wed 06:16:30 PM -28.0136 157.9986 217° Southwest 337 388 38,000  Level Aus ATC (RADAR)
Wed 06:17:09 PM -28.0671 157.9596 213° Southwest 339 390 38,000  Level Aus ATC (RADAR)
Wed 06:17:49 PM -28.1192 157.9202 214° Southwest 338 389 38,000  Level Aus ATC (RADAR)
Wed 06:18:24 PM -28.1658 157.8860 213° Southwest 340 391 38,000  Level Aus ATC (RADAR)
Wed 06:18:59 PM -28.2156 157.8513 212° Southwest 351 404 38,000  Level Aus ATC (RADAR)
Wed 06:19:39 PM -28.2696 157.8112 213° Southwest 350 403 38,000  Level Aus ATC (RADAR)
Wed 06:21:04 PM -28.3869 157.7257 213° Southwest 354 407 38,000  Level Aus ATC (RADAR)
Wed 06:21:29 PM -28.4227 157.7003 212° Southwest 358 412 38,000  Level Aus ATC (RADAR)
Wed 06:22:04 PM -28.4719 157.6645 213° Southwest 360 414 38,000  Level Aus ATC (RADAR)
Wed 06:22:39 PM -28.5212 157.6287 213° Southwest 360 414 38,000  Level Aus ATC (RADAR)
Wed 06:23:14 PM -28.5690 157.5932 213° Southwest 357 411 38,000  Level Aus ATC (RADAR)
Wed 06:23:59 PM -28.6323 157.5467 213° Southwest 359 413 38,000 343 Level Aus ATC (RADAR)
Wed 06:24:24 PM -28.6672 157.5210 213° Southwest 360 414 38,400 1,000 Climbing Aus ATC (RADAR)
Wed 06:24:59 PM -28.7170 157.4851 212° Southwest 360 414 39,000 826 Climbing Aus ATC (RADAR)
Wed 06:26:13 PM -28.8194 157.4090 213° Southwest 353 406 39,900 674 Climbing Aus ATC (RADAR)
Wed 06:26:28 PM -28.8397 157.3938 213° Southwest 352 405 40,000 120 Climbing Aus ATC (RADAR)
Wed 06:27:03 PM -28.8891 157.3575 213° Southwest 358 412 40,000  Level Aus ATC (RADAR)
Wed 06:27:48 PM -28.9537 157.3103 213° Southwest 364 419 40,000  Level Aus ATC (RADAR)
Wed 06:28:28 PM -29.0105 157.2680 213° Southwest 366 421 40,000  Level Aus ATC (RADAR)
Wed 06:29:18 PM -29.0822 157.2153 213° Southwest 369 425 40,000  Level Aus ATC (RADAR)
Wed 06:29:33 PM -29.1040 157.1990 213° Southwest 370 426 40,000  Level Aus ATC (RADAR)
Wed 06:30:08 PM -29.1543 157.1616 213° Southwest 371 427 40,000  Level Aus ATC (RADAR)
Wed 06:31:13 PM -29.2483 157.0915 213° Southwest 373 429 40,000  Level Aus ATC (RADAR)
Wed 06:31:38 PM -29.2849 157.0643 213° Southwest 374 430 40,000 -100 Level Aus ATC (RADAR)
Wed 06:32:13 PM -29.3355 157.0264 213° Southwest 374 430 39,900 -75 Descending Aus ATC (RADAR)
Wed 06:32:58 PM -29.4015 156.9774 213° Southwest 376 433 39,900  Level Aus ATC (RADAR)
Wed 06:33:33 PM -29.4531 156.9389 213° Southwest 378 435 39,900 75 Level Aus ATC (RADAR)
Wed 06:34:18 PM -29.5192 156.8891 213° Southwest 379 436 40,000 86 Climbing Aus ATC (RADAR)
Wed 06:34:43 PM -29.5560 156.8614 213° Southwest 380 437 40,000 -100 Level Aus ATC (RADAR)
Wed 06:35:18 PM -29.6083 156.8222 213° Southwest 383 441 39,900 -55 Descending Aus ATC (RADAR)
Wed 06:36:32 PM -29.7212 156.7375 213° Southwest 390 449 39,900  Level Aus ATC (RADAR)
Wed 06:36:57 PM -29.7589 156.7092 213° Southwest 390 449 39,900  Level Aus ATC (RADAR)
Wed 06:37:32 PM -29.8116 156.6694 213° Southwest 390 449 39,900  Level Aus ATC (RADAR)
Wed 06:38:22 PM -29.8870 156.6121 213° Southwest 390 449 39,900  Level Aus ATC (RADAR)
Wed 06:38:57 PM -29.9399 156.5720 213° Southwest 391 450 39,900  Level Aus ATC (RADAR)
Wed 06:39:42 PM -30.0081 156.5203 213° Southwest 392 451 39,900  Level Aus ATC (RADAR)
Wed 06:40:07 PM -30.0459 156.4916 213° Southwest 392 451 39,900  Level Aus ATC (RADAR)
Wed 06:41:27 PM -30.1674 156.3992 213° Southwest 392 451 39,900 -57 Level Aus ATC (RADAR)
Wed 06:41:52 PM -30.2058 156.3701 213° Southwest 394 453 39,800 -100 Descending Aus ATC (RADAR)
Wed 06:42:27 PM -30.2589 156.3295 213° Southwest 394 453 39,800  Level Aus ATC (RADAR)
Wed 06:43:12 PM -30.3277 156.2769 213° Southwest 396 456 39,800  Level Aus ATC (RADAR)
Wed 06:43:47 PM -30.3813 156.2360 213° Southwest 397 457 39,800  Level Aus ATC (RADAR)
Wed 06:44:32 PM -30.4503 156.1832 213° Southwest 398 458 39,800  Level Aus ATC (RADAR)
Wed 06:44:57 PM -30.4884 156.1539 213° Southwest 397 457 39,800 261 Level Aus ATC (RADAR)
Wed 06:45:18 PM -30.5180 156.1310 213° Southwest 391 450 40,000 211 Climbing FlightAware ADS-B
Wed 06:45:54 PM -30.5710 156.0910 213° Southwest 393 452 40,000  Level FlightAware ADS-B
Wed 06:46:32 PM -30.6190 156.0530 214° Southwest 393 452 40,000  Level FlightAware ADS-B
Wed 06:47:08 PM -30.6650 156.0170 214° Southwest 393 452 40,000  Level FlightAware ADS-B
Wed 06:47:45 PM -30.7120 155.9800 214° Southwest 393 452 40,000  Level FlightAware ADS-B
Wed 06:48:19 PM -30.7560 155.9460 214° Southwest 393 452 40,000  Level FlightAware ADS-B
Wed 06:48:55 PM -30.8020 155.9090 215° Southwest 393 452 40,000  Level FlightAware ADS-B
Wed 06:49:31 PM -30.8480 155.8730 214° Southwest 393 452 40,000  Level FlightAware ADS-B
Wed 06:50:09 PM -30.8970 155.8350 214° Southwest 393 452 40,000 -300 Level FlightAware ADS-B
Wed 06:50:11 PM -30.9918 155.8007 214° Southwest 412 474 39,800  Descending Aus ATC (RADAR)
Wed 06:50:44 PM -30.9420 155.8000 214° Southwest 393 452 40,000 174 Climbing FlightAware ADS-B
Wed 06:51:20 PM -30.9880 155.7630 215° Southwest 393 452 40,000  Level FlightAware ADS-B
Wed 06:51:56 PM -31.0340 155.7270 214° Southwest 393 452 40,000 -169 Level FlightAware ADS-B
Wed 06:52:31 PM -31.2309 155.6670 214° Southwest 409 471 39,800  Descending Aus ATC (RADAR)
Wed 06:52:32 PM -31.0800 155.6910 214° Southwest 393 452 40,000  Climbing FlightAware ADS-B
Wed 06:53:06 PM -31.2901 155.6337 214° Southwest 407 468 39,800  Descending Aus ATC (RADAR)
Wed 06:53:08 PM -31.1260 155.6540 214° Southwest 393 452 40,000  Climbing FlightAware ADS-B
Wed 06:53:40 PM -31.3497 155.6001 214° Southwest 409 471 39,800  Descending Aus ATC (RADAR)
Wed 06:53:45 PM -31.1740 155.6170 214° Southwest 393 452 40,000  Climbing FlightAware ADS-B
Wed 06:54:15 PM -31.4097 155.5664 214° Southwest 411 473 39,800  Descending Aus ATC (RADAR)
Wed 06:54:20 PM -31.2180 155.5820 214° Southwest 393 452 40,000 293 Climbing FlightAware ADS-B
Wed 06:54:56 PM -31.2650 155.5450 214° Southwest 393 452 40,000  Level FlightAware ADS-B
Wed 06:55:18 PM -31.5110 155.5090 187° South 411 473 40,000  Level FlightAware ADS-B
Wed 06:55:48 PM -31.5600 155.4820 205° Southwest 412 474 40,000  Level FlightAware ADS-B
Wed 06:56:29 PM -31.6340 155.4400 206° Southwest 413 475 40,000  Level FlightAware ADS-B
Wed 06:56:59 PM -31.6860 155.4100 206° Southwest 414 476 40,000  Level FlightAware ADS-B
Wed 06:57:46 PM -31.7470 155.3770 205° Southwest 414 476 40,000  Level FlightAware ADS-B
Wed 06:58:21 PM -31.8250 155.3310 207° Southwest 418 481 40,000  Level FlightAware ADS-B
Wed 06:58:57 PM -31.8860 155.2960 206° Southwest 421 484 40,000  Level FlightAware ADS-B
Wed 06:59:36 PM -31.9580 155.2550 206° Southwest 424 488 40,000  Level FlightAware ADS-B
Wed 07:00:17 PM -32.0330 155.2130 205° Southwest 431 496 40,000  Level FlightAware ADS-B
Wed 07:00:53 PM -32.0930 155.1780 206° Southwest 433 498 40,000  Level FlightAware ADS-B
Wed 07:01:30 PM -32.1530 155.1440 206° Southwest 433 498 40,000  Level FlightAware ADS-B
Wed 07:02:11 PM -32.2350 155.0970 206° Southwest 431 496 40,000  Level FlightAware ADS-B
Wed 07:03:07 PM -32.3290 155.0430 206° Southwest 430 495 40,000  Level FlightAware ADS-B
Wed 07:03:39 PM -32.3960 155.0040 206° Southwest 428 493 40,000  Level FlightAware ADS-B
Wed 07:04:13 PM -32.4530 154.9710 206° Southwest 428 493 40,000  Level FlightAware ADS-B
Wed 07:04:49 PM -32.5190 154.9330 206° Southwest 428 493 40,000  Level FlightAware ADS-B
Wed 07:05:26 PM -32.5870 154.8930 206° Southwest 430 495 40,000  Level FlightAware ADS-B
Wed 07:05:59 PM -32.6440 154.8570 208° Southwest 425 489 40,000  Level FlightAware ADS-B
Wed 07:06:19 PM -32.6720 154.8270 222° Southwest 415 478 40,000  Level FlightAware ADS-B
Wed 07:06:49 PM -32.7080 154.7720 232° Southwest 409 471 40,000  Level FlightAware ADS-B
Wed 07:07:24 PM -32.7410 154.7210 232° Southwest 409 471 40,000  Level FlightAware ADS-B
Wed 07:08:04 PM -32.7920 154.6410 233° Southwest 406 467 40,000  Level FlightAware ADS-B
Wed 07:08:34 PM -32.8260 154.5880 233° Southwest 401 461 40,000  Level FlightAware ADS-B
Wed 07:09:11 PM -32.8670 154.5230 233° Southwest 394 453 40,000  Level FlightAware ADS-B
Wed 07:09:44 PM -32.9030 154.4670 233° Southwest 392 451 40,000 -176 Level FlightAware ADS-B
Wed 07:10:19 PM -32.9449 154.4000 233° Southwest 392 451 39,800  Descending Aus ATC (RADAR)
Wed 07:10:22 PM -32.9450 154.4010 233° Southwest 393 452 40,000  Climbing FlightAware ADS-B
Wed 07:10:54 PM -32.9833 154.3395 233° Southwest 393 452 39,800  Descending Aus ATC (RADAR)
Wed 07:10:58 PM -32.9850 154.3380 233° Southwest 395 455 40,000 231 Climbing FlightAware ADS-B
Wed 07:11:46 PM -33.0370 154.2560 233° Southwest 392 451 40,000  Level FlightAware ADS-B
Wed 07:12:23 PM -33.0760 154.1950 233° Southwest 392 451 40,000 -156 Level FlightAware ADS-B
Wed 07:13:03 PM -33.1250 154.1153 233° Southwest 391 450 39,800  Descending Aus ATC (RADAR)
Wed 07:13:03 PM -33.1190 154.1260 233° Southwest 393 452 40,000 343 Climbing FlightAware ADS-B
Wed 07:13:38 PM -33.1610 154.0590 233° Southwest 396 456 40,000  Level FlightAware ADS-B
Wed 07:14:10 PM -33.1940 154.0060 233° Southwest 397 457 40,000  Level FlightAware ADS-B
Wed 07:14:46 PM -33.2340 153.9430 233° Southwest 398 458 40,000  Level FlightAware ADS-B
Wed 07:15:16 PM -33.2670 153.8910 233° Southwest 397 457 40,000  Level FlightAware ADS-B
Wed 07:15:52 PM -33.3070 153.8260 234° Southwest 395 455 40,000  Level FlightAware ADS-B
Wed 07:16:26 PM -33.3450 153.7660 233° Southwest 396 456 40,000  Level FlightAware ADS-B
Wed 07:16:56 PM -33.3770 153.7140 234° Southwest 397 457 40,000  Level FlightAware ADS-B
Wed 07:17:33 PM -33.4180 153.6480 233° Southwest 398 458 40,000  Level FlightAware ADS-B
Wed 07:18:07 PM -33.4550 153.5880 234° Southwest 399 459 40,000  Level FlightAware ADS-B
Wed 07:18:54 PM -33.5050 153.5080 233° Southwest 401 461 40,000  Level FlightAware ADS-B
Wed 07:19:28 PM -33.5390 153.4540 233° Southwest 400 460 40,000  Level FlightAware ADS-B
Wed 07:20:02 PM -33.5820 153.3850 233° Southwest 400 460 40,000 -188 Level FlightAware ADS-B
Wed 07:20:32 PM -33.6188 153.3233 233° Southwest 399 459 39,800  Descending Aus ATC (RADAR)
Wed 07:20:37 PM -33.6210 153.3210 233° Southwest 398 458 40,000 316 Climbing FlightAware ADS-B
Wed 07:21:10 PM -33.6550 153.2650 234° Southwest 397 457 40,000 -185 Level FlightAware ADS-B
Wed 07:21:42 PM -33.6950 153.1999 234° Southwest 395 455 39,800  Descending Aus ATC (RADAR)
Wed 07:21:43 PM -33.6930 153.2050 234° Southwest 396 456 40,000 324 Climbing FlightAware ADS-B
Wed 07:22:19 PM -33.7320 153.1410 234° Southwest 395 455 40,000 -308 Level FlightAware ADS-B
Wed 07:22:22 PM -33.7381 153.1297 234° Southwest 383 441 39,800 -316 Descending Aus ATC (RADAR)
Wed 07:22:57 PM -33.7762 153.0680 234° Southwest 384 442 39,800 333 Level Aus ATC (RADAR)
Wed 07:22:58 PM -33.7740 153.0730 234° Southwest 394 453 40,000 -973 Climbing FlightAware ADS-B
Wed 07:23:34 PM -33.8130 153.0080 234° Southwest 388 447 39,200 -2,174 Descending FlightAware ADS-B
Wed 07:24:07 PM -33.8502 152.9460 234° Southwest 383 441 37,500 -2,647 Descending Aus ATC (RADAR)
Wed 07:24:08 PM -33.8490 152.9490 234° Southwest 390 449 37,700 -2,200 Climbing FlightAware ADS-B
Wed 07:24:37 PM -33.8800 152.8980 234° Southwest 394 453 36,400 -3,353 Descending FlightAware ADS-B
Wed 07:24:42 PM -33.8874 152.8835 234° Southwest 392 451 35,800 -3,000 Descending Aus ATC (RADAR)
Wed 07:24:51 PM -33.8890 152.8710 248° West 389 448 35,700 -2,195 Descending FlightAware ADS-B
Wed 07:25:23 PM -33.9040 152.8040 255° West 383 441 34,300 -2,031 Descending FlightAware ADS-B
Wed 07:25:56 PM -33.9160 152.7400 257° West 388 447 33,500 -1,147 Descending FlightAware ADS-B
Wed 07:26:31 PM -33.9300 152.6630 258° West 388 447 33,000 -947 Descending FlightAware ADS-B
Wed 07:27:12 PM -33.9450 152.5730 259° West 389 448 32,300 -1,944 Descending FlightAware ADS-B
Wed 07:27:42 PM -33.9574 152.5062 259° West 376 433 30,700 -2,647 Descending Aus ATC (RADAR)
Wed 07:27:46 PM -33.9580 152.5020 259° West 381 438 30,800 -2,757 Climbing FlightAware ADS-B
Wed 07:28:19 PM -33.9700 152.4370 257° West 381 438 29,000 -3,493 Descending FlightAware ADS-B
Wed 07:28:53 PM -33.9830 152.3640 258° West 381 438 26,900 -3,343 Descending FlightAware ADS-B
Wed 07:29:29 PM -33.9960 152.2880 258° West 382 440 25,100 -2,914 Descending FlightAware ADS-B
Wed 07:30:03 PM -34.0080 152.2200 258° West 379 436 23,500 -2,743 Descending FlightAware ADS-B
Wed 07:30:39 PM -34.0210 152.1480 258° West 370 426 21,900 -2,870 Descending FlightAware ADS-B
Wed 07:31:12 PM -34.0310 152.0790 260° West 359 413 20,200 -2,917 Descending FlightAware ADS-B
Wed 07:31:51 PM -34.0280 152.0010 273° West 344 396 18,400 -2,957 Descending FlightAware ADS-B
Wed 07:32:21 PM -34.0224 151.9414 273° West 339 390 16,800 -2,516 Descending Aus ATC (RADAR)
Wed 07:32:22 PM -34.0230 151.9470 273° West 345 397 17,100 -2,294 Climbing FlightAware ADS-B
Wed 07:32:55 PM -34.0160 151.8830 277° West 345 397 15,500 -2,789 Descending FlightAware ADS-B
Wed 07:33:33 PM -34.0090 151.8110 277° West 338 389 13,800 -2,676 Descending FlightAware ADS-B
Wed 07:34:09 PM -34.0020 151.7430 277° West 338 389 12,200 -2,583 Descending FlightAware ADS-B
Wed 07:34:45 PM -33.9950 151.6780 277° West 332 382 10,700 -3,138 Descending FlightAware ADS-B
Wed 07:35:14 PM -33.9900 151.6240 276° West 343 395 8,800 -2,500 Descending FlightAware ADS-B
Wed 07:35:33 PM -33.9860 151.5910 278° West 322 371 8,700 -324 Descending FlightAware ADS-B
Wed 07:35:51 PM -33.9830 151.5580 276° West 298 343 8,600 -286 Descending FlightAware ADS-B
Wed 07:36:15 PM -33.9790 151.5200 277° West 276 318 8,500 -714 Descending FlightAware ADS-B
Wed 07:36:33 PM -33.9760 151.4930 278° West 271 312 8,100 -1,135 Descending FlightAware ADS-B
Wed 07:36:52 PM -33.9730 151.4660 278° West 270 311 7,800 -811 Descending FlightAware ADS-B
Wed 07:37:10 PM -33.9710 151.4420 276° West 267 307 7,600 -968 Descending FlightAware ADS-B
Wed 07:37:23 PM -33.9680 151.4190 279° West 268 308 7,300 -649 Descending FlightAware ADS-B
Wed 07:37:47 PM -33.9640 151.3830 278° West 251 289 7,200 -146 Descending FlightAware ADS-B
Wed 07:38:04 PM -33.9630 151.3630 273° West 233 268 7,200  Level FlightAware ADS-B
Wed 07:38:24 PM -33.9730 151.3390 243° Southwest 205 236 7,200 -500 Level FlightAware ADS-B
Wed 07:39:04 PM -34.0110 151.3440 174° South 233 268 6,700 -840 Descending FlightAware ADS-B
Wed 07:39:14 PM -34.0200 151.3510 147° Southeast 229 264 6,500 -686 Descending FlightAware ADS-B
Wed 07:39:39 PM -34.0420 151.3690 146° Southeast 218 251 6,300 -500 Descending FlightAware ADS-B
Wed 07:39:50 PM -34.0510 151.3760 147° Southeast 218 251 6,200 -514 Descending FlightAware ADS-B
Wed 07:40:14 PM -34.0730 151.3930 147° Southeast 233 268 6,000 -600 Descending FlightAware ADS-B
Wed 07:40:30 PM -34.0880 151.3990 162° South 210 242 5,800 -667 Descending FlightAware ADS-B
Wed 07:40:50 PM -34.1080 151.3970 185° South 215 247 5,600 -600 Descending FlightAware ADS-B
Wed 07:41:10 PM -34.1280 151.3940 187° South 215 247 5,400 -686 Descending FlightAware ADS-B
Wed 07:41:25 PM -34.1430 151.3930 183° South 217 250 5,200 -857 Descending FlightAware ADS-B
Wed 07:41:45 PM -34.1630 151.3910 185° South 221 254 4,900 -750 Descending FlightAware ADS-B
Wed 07:42:05 PM -34.1850 151.3880 186° South 225 259 4,700 -600 Descending FlightAware ADS-B
Wed 07:42:15 PM -34.1930 151.3830 207° Southwest 218 251 4,600 -800 Descending FlightAware ADS-B
Wed 07:42:20 PM -34.1970 151.3790 220° Southwest 218 251 4,500 -1,200 Descending FlightAware ADS-B
Wed 07:42:25 PM -34.2010 151.3730 231° Southwest 218 251 4,400 -800 Descending FlightAware ADS-B
Wed 07:42:35 PM -34.2040 151.3620 252° West 219 252 4,300 -400 Descending FlightAware ADS-B
Wed 07:42:40 PM -34.2040 151.3560 270° West 221 254 4,300 -240 Level FlightAware ADS-B
Wed 07:43:00 PM -34.2000 151.3340 282° West 212 244 4,200 -150 Descending FlightAware ADS-B
Wed 07:43:20 PM -34.1900 151.3140 301° West 191 220 4,200  Level FlightAware ADS-B
Wed 07:43:50 PM -34.1760 151.2870 302° West 180 207 4,200  Level FlightAware ADS-B
Wed 07:44:05 PM -34.1690 151.2770 310° West 188 216 4,200 -686 Level FlightAware ADS-B
Wed 07:44:25 PM -34.1530 151.2630 324° Northwest 192 221 3,800 -1,050 Descending FlightAware ADS-B
Wed 07:44:45 PM -34.1390 151.2500 322° Northwest 190 219 3,500 -900 Descending FlightAware ADS-B
Wed 07:45:05 PM -34.1250 151.2390 327° Northwest 193 222 3,200 -800 Descending FlightAware ADS-B
Wed 07:45:15 PM -34.1160 151.2330 331° Northwest 189 217 3,100 -960 Descending FlightAware ADS-B
Wed 07:45:30 PM -34.1050 151.2290 343° North 188 216 2,800 -1,029 Descending FlightAware ADS-B
Wed 07:45:50 PM -34.0870 151.2250 350° North 185 213 2,500 -900 Descending FlightAware ADS-B
Wed 07:46:10 PM -34.0710 151.2210 348° North 169 194 2,200 -800 Descending FlightAware ADS-B
Wed 07:46:35 PM -34.0520 151.2160 348° North 161 185 1,900 -800 Descending FlightAware ADS-B
Wed 07:46:55 PM -34.0380 151.2110 344° North 158 182 1,600 -900 Descending FlightAware ADS-B
Wed 07:47:15 PM -34.0250 151.2080 349° North 152 175 1,300 -750 Descending FlightAware ADS-B
Wed 07:47:35 PM -34.0110 151.2040 347° North 146 168 1,100 -750 Descending FlightAware ADS-B
Wed 07:47:55 PM -33.9980 151.2010 349° North 146 168 800 -698 Descending FlightAware ADS-B
Wed 07:48:18 PM -33.9850 151.1970 346° North 141 162 600 -692 Descending FlightAware ADS-B
Wed 07:48:47 PM -33.9650 151.1920 348° North 132 152 200 -828 Descending FlightAware ADS-B

Login

Don't have an account? Register now (free) for customized features, flight alerts, and more!